createdAt,value
2018-11-27T00:02:03.328Z,4.43
2018-11-27T00:07:05.470Z,7.20
2018-11-27T00:12:07.632Z,6.63
2018-11-27T00:17:09.712Z,9.20
2018-11-27T00:22:11.833Z,2.80
2018-11-27T00:27:13.940Z,4.37
2018-11-27T00:32:16.070Z,5.50
2018-11-27T00:37:18.200Z,1.83
2018-11-27T00:42:20.308Z,8.00
2018-11-27T00:47:22.451Z,2.23
2018-11-27T00:52:24.573Z,2.80
2018-11-27T00:57:26.708Z,2.07
2018-11-27T01:02:28.902Z,4.27
2018-11-27T01:07:31.003Z,4.97
2018-11-27T01:12:33.168Z,2.33
2018-11-27T01:17:35.263Z,2.73
2018-11-27T01:22:37.379Z,2.40
2018-11-27T01:27:39.485Z,11.93
2018-11-27T01:32:41.701Z,3.37
2018-11-27T01:37:44.154Z,3.87
2018-11-27T01:42:47.384Z,3.33
2018-11-27T01:47:49.808Z,3.13
2018-11-27T01:52:51.951Z,6.00
2018-11-27T01:57:54.049Z,3.57
2018-11-27T02:02:56.898Z,2.50
2018-11-27T02:07:59.005Z,1.30
2018-11-27T02:13:01.516Z,2.23
2018-11-27T02:18:03.276Z,2.03
2018-11-27T02:23:05.598Z,2.93
2018-11-27T02:28:07.713Z,2.87
2018-11-27T02:33:09.828Z,2.80
2018-11-27T02:38:11.927Z,4.43
2018-11-27T02:43:14.066Z,6.37
2018-11-27T02:48:16.209Z,3.90
2018-11-27T02:53:18.294Z,1.70
2018-11-27T02:58:20.408Z,7.73
2018-11-27T03:03:22.522Z,9.97
2018-11-27T03:08:24.651Z,4.33
2018-11-27T03:13:26.796Z,2.20
2018-11-27T03:18:28.880Z,1.80
2018-11-27T03:23:30.981Z,3.33
2018-11-27T03:28:33.088Z,1.37
2018-11-27T03:33:35.219Z,5.50
2018-11-27T03:38:37.326Z,1.80
2018-11-27T03:43:39.423Z,4.43
2018-11-27T03:48:41.526Z,2.37
2018-11-27T03:53:43.612Z,1.27
2018-11-27T03:58:45.703Z,1.83
2018-11-27T04:03:47.784Z,5.90
2018-11-27T04:08:49.895Z,2.60
2018-11-27T04:13:52.036Z,2.73
2018-11-27T04:18:54.145Z,4.60
2018-11-27T04:23:56.421Z,7.10
2018-11-27T04:29:05.430Z,3.30
2018-11-27T04:34:07.537Z,4.57
2018-11-27T04:39:09.648Z,4.40
2018-11-27T04:44:11.749Z,2.50
2018-11-27T04:49:13.828Z,6.97
2018-11-27T04:54:15.939Z,1.20
2018-11-27T04:59:18.032Z,1.53
2018-11-27T05:04:20.230Z,2.53
2018-11-27T05:09:22.330Z,2.00
2018-11-27T05:14:24.450Z,3.63
2018-11-27T05:19:26.594Z,3.37
2018-11-27T05:24:28.726Z,2.63
2018-11-27T05:29:30.809Z,5.13
2018-11-27T05:34:32.942Z,8.60
2018-11-27T05:39:35.058Z,10.63
2018-11-27T05:44:37.170Z,5.97
2018-11-27T05:49:39.280Z,3.60
2018-11-27T05:54:41.388Z,1.40
2018-11-27T05:59:43.534Z,5.80
2018-11-27T06:04:45.653Z,4.23
2018-11-27T06:09:47.764Z,5.57
2018-11-27T06:14:49.917Z,2.20
2018-11-27T06:19:52.034Z,3.47
2018-11-27T06:24:54.132Z,1.87
2018-11-27T06:29:56.218Z,4.00
2018-11-27T06:34:58.337Z,4.10
2018-11-27T06:40:00.533Z,3.33
2018-11-27T06:45:02.646Z,3.70
2018-11-27T06:50:05.850Z,3.20
2018-11-27T06:55:09.604Z,3.90
2018-11-27T07:00:14.029Z,4.87
2018-11-27T07:05:16.138Z,2.77
2018-11-27T07:10:25.464Z,3.70
2018-11-27T07:15:27.647Z,3.20
2018-11-27T07:20:29.724Z,5.27
2018-11-27T07:25:31.816Z,4.00
2018-11-27T07:30:34.083Z,6.33
2018-11-27T07:35:36.264Z,4.20
2018-11-27T07:40:38.391Z,5.80
2018-11-27T07:45:40.568Z,6.10
2018-11-27T07:50:42.647Z,7.10
2018-11-27T07:55:44.798Z,5.13
2018-11-27T08:00:46.939Z,9.10
2018-11-27T08:05:49.033Z,7.57
2018-11-27T08:10:51.463Z,8.30
2018-11-27T08:15:53.600Z,7.57
2018-11-27T08:20:55.720Z,8.33
2018-11-27T08:25:57.837Z,10.00
2018-11-27T08:30:59.949Z,10.13
2018-11-27T08:36:02.049Z,8.70
2018-11-27T08:41:04.189Z,15.63
2018-11-27T08:46:06.335Z,6.50
2018-11-27T08:51:08.441Z,8.67
2018-11-27T08:56:10.622Z,7.93
2018-11-27T09:01:12.766Z,21.93
2018-11-27T09:06:14.914Z,11.70
2018-11-27T09:11:17.085Z,11.80
2018-11-27T09:16:19.271Z,23.50
2018-11-27T09:21:21.408Z,115.10
2018-11-27T09:26:23.561Z,72.23
2018-11-27T09:31:25.709Z,64.63
2018-11-27T09:36:27.826Z,31.37
2018-11-27T09:41:29.942Z,15.30
2018-11-27T09:46:32.056Z,13.60
2018-11-27T09:51:34.148Z,62.70
2018-11-27T09:56:36.283Z,10.60
2018-11-27T10:01:38.424Z,9.83
2018-11-27T10:06:40.544Z,11.63
2018-11-27T10:11:42.703Z,7.93
2018-11-27T10:16:44.886Z,9.50
2018-11-27T10:21:46.985Z,33.00
2018-11-27T10:26:49.092Z,17.93
2018-11-27T10:31:51.241Z,13.43
2018-11-27T10:36:53.406Z,19.83
2018-11-27T10:41:55.542Z,12.53
2018-11-27T10:46:57.674Z,13.93
2018-11-27T10:51:59.804Z,27.30
2018-11-27T10:57:01.903Z,17.20
2018-11-27T11:02:09.905Z,11.80
2018-11-27T11:07:12.048Z,14.07
2018-11-27T11:12:14.182Z,8.50
2018-11-27T11:17:16.334Z,3.43
2018-11-27T11:22:18.429Z,6.17
2018-11-27T11:27:20.543Z,5.60
2018-11-27T11:32:22.650Z,5.00
2018-11-27T11:37:24.774Z,6.80
2018-11-27T11:42:26.970Z,6.97
2018-11-27T11:47:29.098Z,5.40
2018-11-27T11:52:31.909Z,6.60
2018-11-27T11:57:33.385Z,5.27
2018-11-27T12:02:35.499Z,4.40
2018-11-27T12:07:37.649Z,2.73
2018-11-27T12:12:40.300Z,2.30
2018-11-27T12:17:43.107Z,1.20
2018-11-27T12:22:46.618Z,1.47
2018-11-27T12:27:48.826Z,2.27
2018-11-27T12:32:51.072Z,4.30
2018-11-27T12:37:53.217Z,2.23
2018-11-27T12:42:55.916Z,1.27
2018-11-27T12:47:59.165Z,1.23
2018-11-27T12:53:01.318Z,3.30
2018-11-27T12:58:03.869Z,0.90
2018-11-27T13:03:06.210Z,1.37
2018-11-27T13:08:10.997Z,1.83
2018-11-27T13:13:13.165Z,3.23
2018-11-27T13:18:15.361Z,2.60
2018-11-27T13:23:17.491Z,2.27
2018-11-27T13:28:19.685Z,2.03
2018-11-27T13:33:30.433Z,6.53
2018-11-27T13:38:32.591Z,5.30
2018-11-27T13:43:34.878Z,3.50
2018-11-27T13:48:37.017Z,13.30
2018-11-27T13:53:39.141Z,5.80
2018-11-27T13:58:41.302Z,12.20
2018-11-27T14:03:43.442Z,4.20
2018-11-27T14:08:45.580Z,11.03
2018-11-27T14:13:47.701Z,7.00
2018-11-27T14:18:49.886Z,6.90
2018-11-27T14:23:52.027Z,5.13
2018-11-27T14:28:54.179Z,10.47
2018-11-27T14:33:56.319Z,10.20
2018-11-27T14:38:58.433Z,6.90
2018-11-27T14:44:00.550Z,8.13
2018-11-27T14:49:02.697Z,9.00
2018-11-27T14:54:05.710Z,9.83
2018-11-27T14:59:07.819Z,10.70
2018-11-27T15:04:09.998Z,9.73
2018-11-27T15:09:12.166Z,8.33
2018-11-27T15:14:14.305Z,6.10
2018-11-27T15:19:16.497Z,10.03
2018-11-27T15:24:18.626Z,8.17
2018-11-27T15:29:20.745Z,9.27
2018-11-27T15:34:22.899Z,5.70
2018-11-27T15:39:25.055Z,10.50
2018-11-27T15:44:27.204Z,13.43
2018-11-27T15:49:29.341Z,9.13
2018-11-27T15:59:47.901Z,9.10
2018-11-27T16:04:50.097Z,8.47
2018-11-27T16:09:52.269Z,8.47
2018-11-27T16:14:54.406Z,5.10
2018-11-27T16:19:56.589Z,4.80
2018-11-27T16:24:58.730Z,3.63
2018-11-27T16:30:00.885Z,7.07
2018-11-27T16:35:03.060Z,6.30
2018-11-27T16:40:18.556Z,11.57
2018-11-27T16:45:21.725Z,8.40
2018-11-27T16:50:23.923Z,11.50
2018-11-27T16:55:26.065Z,10.80
2018-11-27T17:00:31.180Z,4.57
2018-11-27T17:05:35.120Z,4.83
2018-11-27T17:10:38.624Z,3.77
2018-11-27T17:15:40.770Z,1.83
2018-11-27T17:20:44.078Z,2.23
2018-11-27T17:25:46.248Z,3.23
2018-11-27T17:31:19.272Z,3.13
2018-11-27T17:36:21.444Z,1.57
2018-11-27T17:41:23.660Z,1.97
2018-11-27T17:46:25.806Z,1.70
2018-11-27T17:51:28.028Z,10.03
2018-11-27T17:56:30.213Z,6.77
2018-11-27T18:01:32.411Z,5.90
2018-11-27T18:06:34.571Z,8.23
2018-11-27T18:11:36.765Z,5.73
2018-11-27T18:16:38.924Z,2.93
2018-11-27T18:21:41.128Z,2.47
2018-11-27T18:26:43.341Z,5.70
2018-11-27T18:31:45.485Z,4.70
2018-11-27T18:36:47.680Z,4.63
2018-11-27T18:41:49.825Z,6.00
2018-11-27T18:46:52.295Z,7.63
2018-11-27T18:51:58.693Z,6.13
2018-11-27T18:57:04.005Z,6.43
2018-11-27T19:02:09.619Z,7.60
2018-11-27T19:07:13.667Z,5.80
2018-11-27T19:12:18.120Z,6.30
2018-11-27T19:17:23.778Z,7.20
2018-11-27T19:22:30.127Z,2.97
2018-11-27T19:27:35.988Z,4.13
2018-11-27T19:32:41.391Z,4.97
2018-11-27T19:37:47.702Z,6.47
2018-11-27T19:42:53.563Z,4.20
2018-11-27T19:47:59.062Z,7.23
2018-11-27T19:53:11.771Z,8.30
2018-11-27T19:58:13.274Z,11.07
2018-11-27T20:03:20.995Z,7.30
2018-11-27T20:08:27.449Z,6.70
2018-11-27T20:13:33.918Z,9.00
2018-11-27T20:18:40.246Z,4.37
2018-11-27T20:23:46.334Z,7.47
2018-11-27T20:28:52.663Z,5.70
2018-11-27T20:33:58.929Z,6.60
2018-11-27T20:39:08.541Z,3.50
2018-11-27T20:44:15.404Z,5.80
2018-11-27T20:49:22.586Z,6.90
2018-11-27T20:54:29.173Z,5.13
2018-11-27T20:59:35.485Z,4.87
2018-11-27T21:04:42.604Z,5.43
2018-11-27T21:09:48.706Z,5.87
2018-11-27T21:14:54.386Z,4.90
2018-11-27T21:20:00.012Z,6.07
2018-11-27T21:25:06.885Z,5.27
2018-11-27T21:30:12.711Z,5.60
2018-11-27T21:35:18.375Z,5.97
2018-11-27T21:40:23.248Z,5.27
2018-11-27T21:45:27.058Z,3.73
2018-11-27T21:50:35.620Z,3.80
2018-11-27T21:55:40.315Z,5.47
2018-11-27T22:00:42.705Z,3.73
2018-11-27T22:05:44.922Z,6.10
2018-11-27T22:10:47.114Z,3.30
2018-11-27T22:15:49.295Z,4.20
2018-11-27T22:20:51.517Z,6.93
2018-11-27T22:25:53.913Z,4.17
2018-11-27T22:30:56.702Z,4.00
2018-11-27T22:35:58.920Z,5.23
2018-11-27T22:41:01.189Z,5.53
2018-11-27T22:46:03.421Z,3.00
2018-11-27T22:51:05.636Z,5.10
2018-11-27T22:56:07.848Z,4.53
2018-11-27T23:01:10.077Z,2.30
2018-11-27T23:06:12.235Z,2.63
2018-11-27T23:11:14.442Z,8.67
2018-11-27T23:16:16.569Z,3.10
2018-11-27T23:21:18.635Z,4.40
2018-11-27T23:26:20.818Z,4.60
2018-11-27T23:31:22.872Z,4.23
2018-11-27T23:36:24.960Z,4.13
2018-11-27T23:41:27.041Z,6.07
2018-11-27T23:46:29.122Z,4.20
2018-11-27T23:51:31.176Z,4.00
2018-11-27T23:56:33.242Z,4.47
